sensor_id;sensor_type;location;lat;lon;timestamp;pressure;altitude;pressure_sealevel;temperature;humidity
4449;BME280;2237;51.870;6.160;2022-08-18T00:01:29;101118.97;;;21.70;100.00
4449;BME280;2237;51.870;6.160;2022-08-18T00:03:57;101110.59;;;21.50;100.00
4449;BME280;2237;51.870;6.160;2022-08-18T00:06:29;101121.47;;;21.59;100.00
4449;BME280;2237;51.870;6.160;2022-08-18T00:09:00;101124.28;;;21.70;100.00
4449;BME280;2237;51.870;6.160;2022-08-18T00:11:29;101136.97;;;21.79;100.00
4449;BME280;2237;51.870;6.160;2022-08-18T00:14:11;101139.88;;;21.89;100.00
4449;BME280;2237;51.870;6.160;2022-08-18T00:16:48;101141.00;;;21.99;100.00
4449;BME280;2237;51.870;6.160;2022-08-18T00:19:15;101140.16;;;21.99;100.00
4449;BME280;2237;51.870;6.160;2022-08-18T00:21:42;101138.19;;;21.88;100.00
4449;BME280;2237;51.870;6.160;2022-08-18T00:24:08;101142.44;;;21.76;100.00
4449;BME280;2237;51.870;6.160;2022-08-18T00:26:34;101139.69;;;21.78;100.00
4449;BME280;2237;51.870;6.160;2022-08-18T00:29:02;101150.97;;;21.81;100.00
4449;BME280;2237;51.870;6.160;2022-08-18T00:31:29;101144.59;;;21.84;100.00
4449;BME280;2237;51.870;6.160;2022-08-18T00:33:56;101146.31;;;21.85;100.00
4449;BME280;2237;51.870;6.160;2022-08-18T00:36:23;101143.75;;;21.83;100.00
4449;BME280;2237;51.870;6.160;2022-08-18T00:38:49;101141.78;;;21.73;100.00
4449;BME280;2237;51.870;6.160;2022-08-18T00:41:15;101145.28;;;21.73;100.00
4449;BME280;2237;51.870;6.160;2022-08-18T00:43:48;101154.53;;;21.80;100.00
4449;BME280;2237;51.870;6.160;2022-08-18T00:46:21;101149.81;;;21.71;100.00
4449;BME280;2237;51.870;6.160;2022-08-18T00:48:48;101154.03;;;21.61;100.00
4449;BME280;2237;51.870;6.160;2022-08-18T00:51:23;101157.06;;;21.55;100.00
4449;BME280;2237;51.870;6.160;2022-08-18T00:53:58;101161.84;;;21.63;100.00
4449;BME280;2237;51.870;6.160;2022-08-18T00:56:32;101156.47;;;21.64;100.00
4449;BME280;2237;51.870;6.160;2022-08-18T01:01:41;101154.38;;;21.69;100.00
4449;BME280;2237;51.870;6.160;2022-08-18T01:04:19;101160.22;;;21.74;100.00
4449;BME280;2237;51.870;6.160;2022-08-18T01:06:52;101156.94;;;21.85;100.00
4449;BME280;2237;51.870;6.160;2022-08-18T01:09:20;101153.81;;;21.92;100.00
4449;BME280;2237;51.870;6.160;2022-08-18T01:11:47;101158.72;;;21.99;100.00
4449;BME280;2237;51.870;6.160;2022-08-18T01:14:14;101166.88;;;21.95;100.00
4449;BME280;2237;51.870;6.160;2022-08-18T01:16:45;101162.06;;;21.88;100.00
4449;BME280;2237;51.870;6.160;2022-08-18T01:19:31;101161.00;;;21.76;100.00
4449;BME280;2237;51.870;6.160;2022-08-18T01:22:21;101159.28;;;21.75;100.00
4449;BME280;2237;51.870;6.160;2022-08-18T01:24:50;101158.56;;;21.73;100.00
4449;BME280;2237;51.870;6.160;2022-08-18T01:27:36;101161.94;;;21.75;100.00
4449;BME280;2237;51.870;6.160;2022-08-18T01:30:08;101152.75;;;21.81;100.00
4449;BME280;2237;51.870;6.160;2022-08-18T01:32:36;101146.78;;;21.77;100.00
4449;BME280;2237;51.870;6.160;2022-08-18T01:35:06;101142.06;;;21.82;100.00
4449;BME280;2237;51.870;6.160;2022-08-18T01:37:35;101142.44;;;21.90;100.00
4449;BME280;2237;51.870;6.160;2022-08-18T01:40:08;101144.31;;;21.88;100.00
4449;BME280;2237;51.870;6.160;2022-08-18T01:42:55;101139.59;;;21.93;100.00
4449;BME280;2237;51.870;6.160;2022-08-18T01:45:24;101133.44;;;21.93;100.00
4449;BME280;2237;51.870;6.160;2022-08-18T01:47:51;101151.91;;;21.94;100.00
4449;BME280;2237;51.870;6.160;2022-08-18T01:50:18;101143.38;;;21.89;100.00
4449;BME280;2237;51.870;6.160;2022-08-18T01:52:44;101155.91;;;21.87;100.00
4449;BME280;2237;51.870;6.160;2022-08-18T01:55:11;101157.75;;;21.85;100.00
4449;BME280;2237;51.870;6.160;2022-08-18T01:57:40;101152.66;;;21.82;100.00
4449;BME280;2237;51.870;6.160;2022-08-18T02:00:10;101158.47;;;21.61;100.00
4449;BME280;2237;51.870;6.160;2022-08-18T02:02:38;101155.94;;;21.59;100.00
4449;BME280;2237;51.870;6.160;2022-08-18T02:05:09;101154.78;;;21.49;100.00
4449;BME280;2237;51.870;6.160;2022-08-18T02:07:36;101159.59;;;21.42;100.00
4449;BME280;2237;51.870;6.160;2022-08-18T02:10:06;101164.91;;;21.42;100.00
4449;BME280;2237;51.870;6.160;2022-08-18T02:12:40;101164.03;;;21.42;100.00
4449;BME280;2237;51.870;6.160;2022-08-18T02:15:08;101171.91;;;21.44;100.00
4449;BME280;2237;51.870;6.160;2022-08-18T02:17:39;101168.97;;;21.48;100.00
4449;BME280;2237;51.870;6.160;2022-08-18T02:20:09;101170.56;;;21.51;100.00
4449;BME280;2237;51.870;6.160;2022-08-18T02:22:38;101171.16;;;21.56;100.00
4449;BME280;2237;51.870;6.160;2022-08-18T02:25:05;101163.75;;;21.61;100.00
4449;BME280;2237;51.870;6.160;2022-08-18T02:27:33;101164.25;;;21.67;100.00
4449;BME280;2237;51.870;6.160;2022-08-18T02:30:01;101160.72;;;21.67;100.00
4449;BME280;2237;51.870;6.160;2022-08-18T02:32:30;101157.16;;;21.68;100.00
4449;BME280;2237;51.870;6.160;2022-08-18T02:34:57;101169.34;;;21.70;100.00
4449;BME280;2237;51.870;6.160;2022-08-18T02:37:23;101162.44;;;21.68;100.00
4449;BME280;2237;51.870;6.160;2022-08-18T02:39:50;101171.81;;;21.59;100.00
4449;BME280;2237;51.870;6.160;2022-08-18T02:42:16;101176.53;;;21.54;100.00
4449;BME280;2237;51.870;6.160;2022-08-18T02:44:43;101178.44;;;21.52;100.00
4449;BME280;2237;51.870;6.160;2022-08-18T02:47:10;101179.50;;;21.50;100.00
4449;BME280;2237;51.870;6.160;2022-08-18T02:49:36;101177.09;;;21.45;100.00
4449;BME280;2237;51.870;6.160;2022-08-18T02:52:03;101185.25;;;21.42;100.00
4449;BME280;2237;51.870;6.160;2022-08-18T02:54:30;101177.47;;;21.39;100.00
4449;BME280;2237;51.870;6.160;2022-08-18T02:56:57;101177.41;;;21.40;100.00
4449;BME280;2237;51.870;6.160;2022-08-18T02:59:25;101174.81;;;21.39;100.00
4449;BME280;2237;51.870;6.160;2022-08-18T03:01:54;101171.91;;;21.29;100.00
4449;BME280;2237;51.870;6.160;2022-08-18T03:04:24;101168.97;;;21.20;100.00
4449;BME280;2237;51.870;6.160;2022-08-18T03:06:58;101173.97;;;21.10;100.00
4449;BME280;2237;51.870;6.160;2022-08-18T03:09:26;101181.31;;;21.05;100.00
4449;BME280;2237;51.870;6.160;2022-08-18T03:11:54;101180.56;;;21.03;100.00
4449;BME280;2237;51.870;6.160;2022-08-18T03:14:20;101183.47;;;20.99;100.00
4449;BME280;2237;51.870;6.160;2022-08-18T03:16:47;101185.16;;;21.00;100.00
4449;BME280;2237;51.870;6.160;2022-08-18T03:19:29;101181.75;;;20.83;100.00
4449;BME280;2237;51.870;6.160;2022-08-18T03:21:58;101178.13;;;20.84;100.00
4449;BME280;2237;51.870;6.160;2022-08-18T03:24:30;101187.59;;;20.74;100.00
4449;BME280;2237;51.870;6.160;2022-08-18T03:26:58;101180.06;;;20.67;100.00
4449;BME280;2237;51.870;6.160;2022-08-18T03:29:25;101169.31;;;20.70;100.00
4449;BME280;2237;51.870;6.160;2022-08-18T03:31:59;101165.19;;;20.80;100.00
4449;BME280;2237;51.870;6.160;2022-08-18T03:34:25;101164.66;;;20.89;100.00
4449;BME280;2237;51.870;6.160;2022-08-18T03:36:52;101175.97;;;20.91;100.00
4449;BME280;2237;51.870;6.160;2022-08-18T03:39:19;101165.69;;;20.87;100.00
4449;BME280;2237;51.870;6.160;2022-08-18T03:41:50;101176.53;;;20.82;100.00
4449;BME280;2237;51.870;6.160;2022-08-18T03:44:31;101165.19;;;20.80;100.00
4449;BME280;2237;51.870;6.160;2022-08-18T03:46:58;101164.31;;;20.79;100.00
4449;BME280;2237;51.870;6.160;2022-08-18T03:49:25;101167.25;;;20.75;100.00
4449;BME280;2237;51.870;6.160;2022-08-18T03:51:52;101162.78;;;20.75;100.00
4449;BME280;2237;51.870;6.160;2022-08-18T03:54:20;101162.50;;;20.66;100.00
4449;BME280;2237;51.870;6.160;2022-08-18T03:56:47;101160.44;;;20.71;100.00
4449;BME280;2237;51.870;6.160;2022-08-18T03:59:17;101172.06;;;20.68;100.00
4449;BME280;2237;51.870;6.160;2022-08-18T04:01:46;101168.44;;;20.69;100.00
4449;BME280;2237;51.870;6.160;2022-08-18T04:04:15;101171.88;;;20.71;100.00
4449;BME280;2237;51.870;6.160;2022-08-18T04:06:45;101166.59;;;20.71;100.00
4449;BME280;2237;51.870;6.160;2022-08-18T04:09:14;101180.38;;;20.76;100.00
4449;BME280;2237;51.870;6.160;2022-08-18T04:11:42;101177.28;;;20.84;100.00
4449;BME280;2237;51.870;6.160;2022-08-18T04:14:11;101181.13;;;20.78;100.00
4449;BME280;2237;51.870;6.160;2022-08-18T04:16:38;101175.44;;;20.70;100.00
4449;BME280;2237;51.870;6.160;2022-08-18T04:19:07;101183.31;;;20.72;100.00
4449;BME280;2237;51.870;6.160;2022-08-18T04:21:37;101179.03;;;20.69;100.00
4449;BME280;2237;51.870;6.160;2022-08-18T04:24:05;101174.94;;;20.64;100.00
4449;BME280;2237;51.870;6.160;2022-08-18T04:26:35;101172.13;;;20.67;100.00
4449;BME280;2237;51.870;6.160;2022-08-18T04:29:05;101165.03;;;20.67;100.00
4449;BME280;2237;51.870;6.160;2022-08-18T04:31:31;101168.44;;;20.69;100.00
4449;BME280;2237;51.870;6.160;2022-08-18T04:33:59;101170.56;;;20.78;99.42
4449;BME280;2237;51.870;6.160;2022-08-18T04:36:28;101168.94;;;20.76;99.12
4449;BME280;2237;51.870;6.160;2022-08-18T04:38:55;101164.88;;;20.70;99.21
4449;BME280;2237;51.870;6.160;2022-08-18T04:41:23;101167.25;;;20.75;98.94
4449;BME280;2237;51.870;6.160;2022-08-18T04:43:56;101173.94;;;20.66;99.00
4449;BME280;2237;51.870;6.160;2022-08-18T04:46:23;101171.31;;;20.66;98.50
4449;BME280;2237;51.870;6.160;2022-08-18T04:48:50;101172.06;;;20.68;98.33
4449;BME280;2237;51.870;6.160;2022-08-18T04:51:19;101181.59;;;20.71;98.14
4449;BME280;2237;51.870;6.160;2022-08-18T04:54:05;101187.94;;;20.68;98.22
4449;BME280;2237;51.870;6.160;2022-08-18T04:56:35;101182.47;;;20.71;98.42
4449;BME280;2237;51.870;6.160;2022-08-18T04:59:08;101188.69;;;20.70;98.31
4449;BME280;2237;51.870;6.160;2022-08-18T05:01:40;101185.88;;;20.73;97.77
4449;BME280;2237;51.870;6.160;2022-08-18T05:04:08;101190.22;;;20.74;97.91
4449;BME280;2237;51.870;6.160;2022-08-18T05:06:35;101196.28;;;20.76;97.94
4449;BME280;2237;51.870;6.160;2022-08-18T05:09:05;101198.47;;;20.84;97.81
4449;BME280;2237;51.870;6.160;2022-08-18T05:11:32;101198.28;;;20.87;97.51
4449;BME280;2237;51.870;6.160;2022-08-18T05:14:01;101202.75;;;20.87;97.69
4449;BME280;2237;51.870;6.160;2022-08-18T05:16:28;101200.50;;;20.95;97.53
4449;BME280;2237;51.870;6.160;2022-08-18T05:18:57;101201.00;;;21.01;97.21
4449;BME280;2237;51.870;6.160;2022-08-18T05:21:28;101206.41;;;21.14;96.24
4449;BME280;2237;51.870;6.160;2022-08-18T05:23:54;101202.09;;;21.13;95.83
4449;BME280;2237;51.870;6.160;2022-08-18T05:26:21;101206.16;;;21.18;nan
4449;BME280;2237;51.870;6.160;2022-08-18T05:28:47;101209.75;;;21.17;94.91
4449;BME280;2237;51.870;6.160;2022-08-18T05:31:23;101207.41;;;21.27;94.72
4449;BME280;2237;51.870;6.160;2022-08-18T05:33:51;101208.53;;;21.37;94.32
4449;BME280;2237;51.870;6.160;2022-08-18T05:38:58;101203.03;;;21.40;92.34
4449;BME280;2237;51.870;6.160;2022-08-18T05:41:33;101204.75;;;21.41;92.71
4449;BME280;2237;51.870;6.160;2022-08-18T05:44:02;101203.78;;;21.42;92.53
4449;BME280;2237;51.870;6.160;2022-08-18T05:46:51;101210.06;;;21.41;92.82
4449;BME280;2237;51.870;6.160;2022-08-18T05:49:18;101204.75;;;21.41;92.25
4449;BME280;2237;51.870;6.160;2022-08-18T05:51:49;101210.06;;;21.41;92.44
4449;BME280;2237;51.870;6.160;2022-08-18T05:54:17;101204.47;;;21.46;92.51
4449;BME280;2237;51.870;6.160;2022-08-18T05:57:08;101204.00;;;21.53;91.79
4449;BME280;2237;51.870;6.160;2022-08-18T05:59:39;101204.75;;;21.55;91.57
4449;BME280;2237;51.870;6.160;2022-08-18T06:02:20;101201.53;;;21.64;91.52
4449;BME280;2237;51.870;6.160;2022-08-18T06:04:56;101202.03;;;21.71;90.92
4449;BME280;2237;51.870;6.160;2022-08-18T06:07:33;101197.75;;;21.82;90.60
4449;BME280;2237;51.870;6.160;2022-08-18T06:10:02;101199.06;;;21.75;89.72
4449;BME280;2237;51.870;6.160;2022-08-18T06:12:36;101206.44;;;21.84;90.49
4449;BME280;2237;51.870;6.160;2022-08-18T06:15:13;101211.47;;;21.89;89.16
4449;BME280;2237;51.870;6.160;2022-08-18T06:31:19;101237.78;;;22.06;88.14
4449;BME280;2237;51.870;6.160;2022-08-18T06:34:10;101237.88;;;22.19;87.68
4449;BME280;2237;51.870;6.160;2022-08-18T06:39:34;101234.44;;;22.31;86.82
4449;BME280;2237;51.870;6.160;2022-08-18T06:42:02;101247.50;;;22.34;85.58
4449;BME280;2237;51.870;6.160;2022-08-18T06:44:32;101241.81;;;22.40;85.46
4449;BME280;2237;51.870;6.160;2022-08-18T06:47:15;101244.25;;;22.43;85.24
4449;BME280;2237;51.870;6.160;2022-08-18T06:49:59;101246.09;;;22.55;83.94
4449;BME280;2237;51.870;6.160;2022-08-18T06:54:58;101248.75;;;22.69;82.16
4449;BME280;2237;51.870;6.160;2022-08-18T07:00:36;101243.25;;;22.72;80.87
4449;BME280;2237;51.870;6.160;2022-08-18T07:03:10;101240.22;;;22.64;80.41
4449;BME280;2237;51.870;6.160;2022-08-18T07:08:42;101243.72;;;22.91;77.96
4449;BME280;2237;51.870;6.160;2022-08-18T07:13:44;101240.34;;;22.48;79.04
4449;BME280;2237;51.870;6.160;2022-08-18T07:19:15;101242.66;;;22.40;79.38
4449;BME280;2237;51.870;6.160;2022-08-18T07:21:43;101244.25;;;22.43;78.68
4449;BME280;2237;51.870;6.160;2022-08-18T07:24:13;101250.75;;;22.66;78.11
4449;BME280;2237;51.870;6.160;2022-08-18T07:29:28;101248.34;;;23.27;75.04
4449;BME280;2237;51.870;6.160;2022-08-18T07:31:58;101248.06;;;23.57;72.86
4449;BME280;2237;51.870;6.160;2022-08-18T07:34:30;101243.03;;;23.78;71.74
4449;BME280;2237;51.870;6.160;2022-08-18T07:37:09;101237.53;;;23.68;71.51
4449;BME280;2237;51.870;6.160;2022-08-18T07:39:49;101247.53;;;23.52;71.41
4449;BME280;2237;51.870;6.160;2022-08-18T07:42:34;101254.53;;;23.40;72.08
4449;BME280;2237;51.870;6.160;2022-08-18T07:48:03;101255.94;;;23.71;70.98
4449;BME280;2237;51.870;6.160;2022-08-18T07:53:59;101253.28;;;23.71;70.07
4449;BME280;2237;51.870;6.160;2022-08-18T07:59:11;101265.19;;;23.91;69.52
4449;BME280;2237;51.870;6.160;2022-08-18T08:04:41;101258.06;;;24.40;67.37
4449;BME280;2237;51.870;6.160;2022-08-18T08:07:20;101258.34;;;24.48;67.00
4449;BME280;2237;51.870;6.160;2022-08-18T08:15:51;101247.50;;;24.39;66.61
4449;BME280;2237;51.870;6.160;2022-08-18T08:18:36;101242.47;;;24.47;66.42
4449;BME280;2237;51.870;6.160;2022-08-18T08:21:18;101245.88;;;24.49;66.50
4449;BME280;2237;51.870;6.160;2022-08-18T08:29:15;101264.16;;;24.30;66.78
4449;BME280;2237;51.870;6.160;2022-08-18T08:32:03;101259.38;;;24.09;66.81
4449;BME280;2237;51.870;6.160;2022-08-18T08:34:52;101254.78;;;24.24;67.00
4449;BME280;2237;51.870;6.160;2022-08-18T08:37:36;101253.06;;;24.36;65.96
4449;BME280;2237;51.870;6.160;2022-08-18T08:40:14;101255.75;;;24.59;64.92
4449;BME280;2237;51.870;6.160;2022-08-18T08:42:48;101256.84;;;24.81;62.95
4449;BME280;2237;51.870;6.160;2022-08-18T08:45:24;101258.44;;;24.83;62.62
4449;BME280;2237;51.870;6.160;2022-08-18T08:47:58;101266.56;;;24.69;62.28
4449;BME280;2237;51.870;6.160;2022-08-18T08:50:45;101273.03;;;24.54;62.97
4449;BME280;2237;51.870;6.160;2022-08-18T08:53:28;101271.22;;;24.54;63.52
4449;BME280;2237;51.870;6.160;2022-08-18T08:56:07;101272.41;;;24.74;63.42
4449;BME280;2237;51.870;6.160;2022-08-18T08:58:48;101276.16;;;24.95;63.73
4449;BME280;2237;51.870;6.160;2022-08-18T09:01:43;101276.00;;;25.20;62.50
4449;BME280;2237;51.870;6.160;2022-08-18T09:04:21;101269.59;;;25.34;61.75
4449;BME280;2237;51.870;6.160;2022-08-18T09:12:23;101265.94;;;25.48;60.68
4449;BME280;2237;51.870;6.160;2022-08-18T09:15:06;101283.22;;;25.42;60.42
4449;BME280;2237;51.870;6.160;2022-08-18T09:23:20;101277.47;;;25.93;59.20
4449;BME280;2237;51.870;6.160;2022-08-18T09:25:54;101284.53;;;26.16;57.96
4449;BME280;2237;51.870;6.160;2022-08-18T09:39:38;101284.50;;;26.92;53.76
4449;BME280;2237;51.870;6.160;2022-08-18T09:42:55;101291.47;;;26.83;53.42
4449;BME280;2237;51.870;6.160;2022-08-18T09:48:42;101274.38;;;26.64;54.23
4449;BME280;2237;51.870;6.160;2022-08-18T09:51:20;101275.47;;;26.61;54.22
4449;BME280;2237;51.870;6.160;2022-08-18T10:02:06;101257.81;;;26.81;54.40
4449;BME280;2237;51.870;6.160;2022-08-18T10:07:43;101277.72;;;27.09;53.78
4449;BME280;2237;51.870;6.160;2022-08-18T10:18:52;101277.56;;;27.63;50.62
4449;BME280;2237;51.870;6.160;2022-08-18T10:21:29;101276.47;;;27.65;51.19
4449;BME280;2237;51.870;6.160;2022-08-18T10:24:19;101284.34;;;27.67;50.46
4449;BME280;2237;51.870;6.160;2022-08-18T10:27:09;101272.72;;;27.77;50.70
4449;BME280;2237;51.870;6.160;2022-08-18T10:29:45;101265.88;;;27.64;49.87
4449;BME280;2237;51.870;6.160;2022-08-18T10:34:49;101261.91;;;27.88;49.93
4449;BME280;2237;51.870;6.160;2022-08-18T10:37:45;101255.03;;;28.45;49.17
4449;BME280;2237;51.870;6.160;2022-08-18T10:40:19;101270.91;;;28.77;47.34
4449;BME280;2237;51.870;6.160;2022-08-18T10:43:16;101260.50;;;28.93;45.37
4449;BME280;2237;51.870;6.160;2022-08-18T10:46:03;101259.78;;;28.72;45.92
4449;BME280;2237;51.870;6.160;2022-08-18T10:48:58;101270.19;;;28.55;46.72
4449;BME280;2237;51.870;6.160;2022-08-18T10:51:39;101263.66;;;28.48;47.07
4449;BME280;2237;51.870;6.160;2022-08-18T11:03:22;101277.59;;;27.72;47.84
4449;BME280;2237;51.870;6.160;2022-08-18T11:06:18;101273.19;;;27.41;50.23
4449;BME280;2237;51.870;6.160;2022-08-18T11:09:06;101273.09;;;27.31;51.12
4449;BME280;2237;51.870;6.160;2022-08-18T11:11:38;101268.56;;;27.22;51.92
4449;BME280;2237;51.870;6.160;2022-08-18T11:14:52;101269.19;;;27.35;51.77
4449;BME280;2237;51.870;6.160;2022-08-18T11:17:32;101265.81;;;27.33;51.29
4449;BME280;2237;51.870;6.160;2022-08-18T11:20:08;101261.84;;;27.48;51.42
4449;BME280;2237;51.870;6.160;2022-08-18T11:22:36;101263.47;;;27.91;50.18
4449;BME280;2237;51.870;6.160;2022-08-18T11:25:18;101266.88;;;28.23;49.04
4449;BME280;2237;51.870;6.160;2022-08-18T11:27:46;101255.44;;;28.31;48.70
4449;BME280;2237;51.870;6.160;2022-08-18T11:30:14;101251.59;;;28.14;48.96
4449;BME280;2237;51.870;6.160;2022-08-18T11:32:43;101247.28;;;28.42;48.20
4449;BME280;2237;51.870;6.160;2022-08-18T11:35:20;101240.44;;;28.87;47.77
4449;BME280;2237;51.870;6.160;2022-08-18T11:37:55;101244.53;;;29.10;46.56
4449;BME280;2237;51.870;6.160;2022-08-18T11:43:29;101225.50;;;28.75;46.62
4449;BME280;2237;51.870;6.160;2022-08-18T11:48:53;101228.03;;;28.86;46.91
4449;BME280;2237;51.870;6.160;2022-08-18T11:51:29;101228.03;;;28.67;46.96
4449;BME280;2237;51.870;6.160;2022-08-18T11:53:59;101217.00;;;28.60;47.12
4449;BME280;2237;51.870;6.160;2022-08-18T11:56:32;101208.41;;;28.86;46.41
4449;BME280;2237;51.870;6.160;2022-08-18T11:59:08;101221.81;;;29.05;46.82
4449;BME280;2237;51.870;6.160;2022-08-18T12:02:18;101207.19;;;29.46;45.88
4449;BME280;2237;51.870;6.160;2022-08-18T12:04:49;101196.16;;;29.86;44.27
4449;BME280;2237;51.870;6.160;2022-08-18T12:07:40;101195.44;;;30.11;43.72
4449;BME280;2237;51.870;6.160;2022-08-18T12:10:26;101201.38;;;30.14;43.82
4449;BME280;2237;51.870;6.160;2022-08-18T12:12:56;101195.16;;;30.14;43.33
4449;BME280;2237;51.870;6.160;2022-08-18T12:15:29;101190.47;;;30.16;42.90
4449;BME280;2237;51.870;6.160;2022-08-18T12:18:14;101194.53;;;30.20;43.36
4449;BME280;2237;51.870;6.160;2022-08-18T12:20:55;101201.22;;;30.34;42.92
4449;BME280;2237;51.870;6.160;2022-08-18T12:23:22;101203.78;;;30.35;42.83
4449;BME280;2237;51.870;6.160;2022-08-18T12:25:49;101201.50;;;30.40;42.42
4449;BME280;2237;51.870;6.160;2022-08-18T12:28:18;101204.88;;;30.42;41.57
4449;BME280;2237;51.870;6.160;2022-08-18T12:30:48;101199.59;;;30.50;41.52
4449;BME280;2237;51.870;6.160;2022-08-18T12:33:22;101200.28;;;30.88;40.64
4449;BME280;2237;51.870;6.160;2022-08-18T12:36:00;101201.63;;;30.92;40.25
4449;BME280;2237;51.870;6.160;2022-08-18T12:38:31;101183.13;;;30.71;40.17
4449;BME280;2237;51.870;6.160;2022-08-18T12:41:02;101184.75;;;30.99;39.73
4449;BME280;2237;51.870;6.160;2022-08-18T12:43:30;101185.53;;;31.43;38.71
4449;BME280;2237;51.870;6.160;2022-08-18T12:45:59;101182.44;;;31.64;38.77
4449;BME280;2237;51.870;6.160;2022-08-18T12:48:27;101186.97;;;31.55;38.72
4449;BME280;2237;51.870;6.160;2022-08-18T12:50:55;101180.41;;;31.32;38.60
4449;BME280;2237;51.870;6.160;2022-08-18T12:53:26;101185.44;;;31.27;38.68
4449;BME280;2237;51.870;6.160;2022-08-18T12:55:56;101200.59;;;31.02;39.17
4449;BME280;2237;51.870;6.160;2022-08-18T12:58:22;101193.50;;;30.84;38.94
4449;BME280;2237;51.870;6.160;2022-08-18T13:00:50;101206.72;;;30.77;38.77
4449;BME280;2237;51.870;6.160;2022-08-18T13:03:16;101193.28;;;30.95;39.08
4449;BME280;2237;51.870;6.160;2022-08-18T13:05:44;101206.47;;;31.06;38.38
4449;BME280;2237;51.870;6.160;2022-08-18T13:08:17;101216.38;;;31.23;37.95
4449;BME280;2237;51.870;6.160;2022-08-18T13:10:59;101222.09;;;30.85;37.49
4449;BME280;2237;51.870;6.160;2022-08-18T13:13:47;101230.66;;;30.35;38.83
4449;BME280;2237;51.870;6.160;2022-08-18T13:16:20;101234.09;;;30.27;38.99
4449;BME280;2237;51.870;6.160;2022-08-18T13:19:05;101232.16;;;30.47;39.14
4449;BME280;2237;51.870;6.160;2022-08-18T13:21:32;101228.41;;;30.75;38.73
4449;BME280;2237;51.870;6.160;2022-08-18T13:24:07;101224.97;;;30.91;38.21
4449;BME280;2237;51.870;6.160;2022-08-18T13:26:37;101236.28;;;30.77;37.82
4449;BME280;2237;51.870;6.160;2022-08-18T13:29:06;101238.06;;;30.86;38.49
4449;BME280;2237;51.870;6.160;2022-08-18T13:31:36;101238.44;;;30.91;38.09
4449;BME280;2237;51.870;6.160;2022-08-18T13:34:04;101250.66;;;30.86;39.02
4449;BME280;2237;51.870;6.160;2022-08-18T13:36:40;101251.38;;;30.70;38.89
4449;BME280;2237;51.870;6.160;2022-08-18T13:39:17;101238.44;;;30.38;38.97
4449;BME280;2237;51.870;6.160;2022-08-18T13:41:45;101237.66;;;30.01;40.10
4449;BME280;2237;51.870;6.160;2022-08-18T13:44:14;101241.09;;;29.84;40.52
4449;BME280;2237;51.870;6.160;2022-08-18T13:46:45;101236.97;;;29.52;40.80
4449;BME280;2237;51.870;6.160;2022-08-18T13:49:12;101239.00;;;29.22;41.77
4449;BME280;2237;51.870;6.160;2022-08-18T13:51:45;101238.16;;;29.21;42.00
4449;BME280;2237;51.870;6.160;2022-08-18T13:54:23;101221.72;;;29.43;41.77
4449;BME280;2237;51.870;6.160;2022-08-18T13:56:59;101219.53;;;29.20;41.69
4449;BME280;2237;51.870;6.160;2022-08-18T13:59:26;101211.88;;;29.15;42.24
4449;BME280;2237;51.870;6.160;2022-08-18T14:01:58;101215.50;;;29.52;42.04
4449;BME280;2237;51.870;6.160;2022-08-18T14:04:26;101215.97;;;29.75;40.83
4449;BME280;2237;51.870;6.160;2022-08-18T14:06:54;101221.88;;;29.79;40.74
4449;BME280;2237;51.870;6.160;2022-08-18T14:09:27;101218.91;;;29.54;40.56
4449;BME280;2237;51.870;6.160;2022-08-18T14:12:05;101210.41;;;29.49;40.77
4449;BME280;2237;51.870;6.160;2022-08-18T14:14:49;101210.97;;;28.87;41.69
4449;BME280;2237;51.870;6.160;2022-08-18T14:17:18;101216.56;;;28.94;41.95
4449;BME280;2237;51.870;6.160;2022-08-18T14:19:49;101218.22;;;29.14;41.81
4449;BME280;2237;51.870;6.160;2022-08-18T14:22:41;101213.91;;;29.23;40.51
4449;BME280;2237;51.870;6.160;2022-08-18T14:25:26;101212.69;;;29.54;40.87
4449;BME280;2237;51.870;6.160;2022-08-18T14:28:11;101211.13;;;29.88;40.29
4449;BME280;2237;51.870;6.160;2022-08-18T14:30:38;101192.28;;;29.98;39.20
4449;BME280;2237;51.870;6.160;2022-08-18T14:33:10;101194.91;;;29.80;40.00
4449;BME280;2237;51.870;6.160;2022-08-18T14:35:37;101191.78;;;30.12;39.08
4449;BME280;2237;51.870;6.160;2022-08-18T14:38:23;101190.50;;;30.87;37.66
4449;BME280;2237;51.870;6.160;2022-08-18T14:40:51;101188.91;;;31.45;36.58
4449;BME280;2237;51.870;6.160;2022-08-18T14:43:25;101181.44;;;32.73;35.00
4449;BME280;2237;51.870;6.160;2022-08-18T14:46:14;101176.13;;;38.22;26.47
4449;BME280;2237;51.870;6.160;2022-08-18T14:48:41;101176.00;;;40.31;23.88
4449;BME280;2237;51.870;6.160;2022-08-18T14:51:13;101185.16;;;38.36;25.46
4449;BME280;2237;51.870;6.160;2022-08-18T14:53:39;101181.84;;;38.54;25.35
4449;BME280;2237;51.870;6.160;2022-08-18T14:56:07;101174.19;;;37.62;26.37
4449;BME280;2237;51.870;6.160;2022-08-18T14:58:35;101178.72;;;40.37;22.97
4449;BME280;2237;51.870;6.160;2022-08-18T15:01:07;101169.81;;;45.11;18.93
4449;BME280;2237;51.870;6.160;2022-08-18T15:03:38;101173.25;;;48.14;15.57
4449;BME280;2237;51.870;6.160;2022-08-18T15:06:05;101166.00;;;49.93;14.23
4449;BME280;2237;51.870;6.160;2022-08-18T15:08:35;101168.09;;;51.36;12.85
4449;BME280;2237;51.870;6.160;2022-08-18T15:11:03;101147.13;;;52.05;12.04
4449;BME280;2237;51.870;6.160;2022-08-18T15:13:39;101151.41;;;52.48;11.57
4449;BME280;2237;51.870;6.160;2022-08-18T15:16:09;101151.75;;;50.82;12.67
4449;BME280;2237;51.870;6.160;2022-08-18T15:18:43;101147.06;;;48.57;14.21
4449;BME280;2237;51.870;6.160;2022-08-18T15:21:11;101152.56;;;47.39;14.59
4449;BME280;2237;51.870;6.160;2022-08-18T15:24:05;101143.06;;;43.03;18.43
4449;BME280;2237;51.870;6.160;2022-08-18T15:26:52;101146.47;;;41.93;19.59
4449;BME280;2237;51.870;6.160;2022-08-18T15:29:24;101142.19;;;43.77;18.02
4449;BME280;2237;51.870;6.160;2022-08-18T15:31:53;101143.59;;;40.72;20.90
4449;BME280;2237;51.870;6.160;2022-08-18T15:34:25;101134.50;;;38.55;24.30
4449;BME280;2237;51.870;6.160;2022-08-18T15:36:53;101145.88;;;37.09;26.36
4449;BME280;2237;51.870;6.160;2022-08-18T15:39:21;101141.97;;;36.06;27.60
4449;BME280;2237;51.870;6.160;2022-08-18T15:41:48;101142.47;;;37.35;25.90
4449;BME280;2237;51.870;6.160;2022-08-18T15:44:20;101144.50;;;36.07;27.90